createdAt,value
2023-04-11T00:01:24.484Z,3
2023-04-11T00:03:08.191Z,1
2023-04-11T00:04:51.876Z,2
2023-04-11T00:06:35.581Z,2
2023-04-11T00:08:19.283Z,2
2023-04-11T00:10:02.981Z,2
2023-04-11T00:11:46.690Z,2
2023-04-11T00:13:30.391Z,3
2023-04-11T00:15:14.097Z,2
2023-04-11T00:16:57.813Z,2
2023-04-11T00:18:41.497Z,3
2023-04-11T00:20:25.201Z,2
2023-04-11T00:22:08.912Z,3
2023-04-11T00:23:52.597Z,2
2023-04-11T00:25:36.307Z,2
2023-04-11T00:27:20.010Z,2
2023-04-11T00:29:03.718Z,2
2023-04-11T00:30:47.417Z,2
2023-04-11T00:32:31.109Z,3
2023-04-11T00:34:14.818Z,3
2023-04-11T00:35:58.521Z,2
2023-04-11T00:37:42.218Z,2
2023-04-11T00:39:25.916Z,2
2023-04-11T00:41:09.627Z,2
2023-04-11T00:42:53.329Z,2
2023-04-11T00:44:37.031Z,2
2023-04-11T00:46:20.735Z,2
2023-04-11T00:48:04.435Z,2
2023-04-11T00:49:48.142Z,2
2023-04-11T00:51:31.843Z,2
2023-04-11T00:53:15.543Z,3
2023-04-11T00:54:59.240Z,2
2023-04-11T00:56:42.944Z,2
2023-04-11T00:58:26.643Z,2
2023-04-11T01:00:10.348Z,2
2023-04-11T01:01:54.057Z,2
2023-04-11T01:03:37.757Z,2
2023-04-11T01:05:21.454Z,2
2023-04-11T01:07:05.164Z,2
2023-04-11T01:08:48.881Z,2
2023-04-11T01:10:32.568Z,2
2023-04-11T01:12:16.270Z,1
2023-04-11T01:13:59.972Z,2
2023-04-11T01:15:43.683Z,2
2023-04-11T01:17:27.375Z,4
2023-04-11T01:19:11.089Z,3
2023-04-11T01:20:54.790Z,1
2023-04-11T01:22:38.523Z,2
2023-04-11T01:24:22.189Z,1
2023-04-11T01:26:05.897Z,2
2023-04-11T01:27:49.600Z,2
2023-04-11T01:29:33.295Z,3
2023-04-11T01:31:16.995Z,2
2023-04-11T01:33:00.703Z,2
2023-04-11T01:34:44.413Z,3
2023-04-11T01:36:28.116Z,3
2023-04-11T01:38:11.807Z,2
2023-04-11T01:39:55.514Z,2
2023-04-11T01:41:39.218Z,3
2023-04-11T01:43:22.912Z,3
2023-04-11T01:45:06.625Z,2
2023-04-11T01:46:50.329Z,2
2023-04-11T01:48:34.010Z,2
2023-04-11T01:50:17.720Z,2
2023-04-11T01:52:01.423Z,2
2023-04-11T01:53:45.131Z,2
2023-04-11T01:55:28.833Z,2
2023-04-11T01:57:12.527Z,2
2023-04-11T01:58:56.228Z,2
2023-04-11T02:00:39.934Z,2
2023-04-11T02:02:23.635Z,2
2023-04-11T02:04:07.338Z,2
2023-04-11T02:05:51.044Z,2
2023-04-11T02:07:34.743Z,2
2023-04-11T02:09:18.450Z,2
2023-04-11T02:11:02.150Z,2
2023-04-11T02:12:45.856Z,2
2023-04-11T02:14:29.556Z,2
2023-04-11T02:16:13.253Z,2
2023-04-11T02:17:56.972Z,3
2023-04-11T02:19:40.671Z,2
2023-04-11T02:21:24.369Z,2
2023-04-11T02:23:08.081Z,2
2023-04-11T02:24:51.766Z,2
2023-04-11T02:26:35.472Z,3
2023-04-11T02:28:19.176Z,2
2023-04-11T02:30:02.888Z,3
2023-04-11T02:31:46.572Z,1
2023-04-11T02:33:30.286Z,2
2023-04-11T02:35:13.983Z,1
2023-04-11T02:36:57.690Z,2
2023-04-11T02:38:41.392Z,2
2023-04-11T02:40:25.093Z,2
2023-04-11T02:42:08.801Z,3
2023-04-11T02:43:52.498Z,2
2023-04-11T02:45:36.205Z,2
2023-04-11T02:47:19.911Z,3
2023-04-11T02:50:47.313Z,2
2023-04-11T02:52:31.008Z,3
2023-04-11T02:54:14.719Z,2
2023-04-11T02:55:58.421Z,2
2023-04-11T02:57:42.108Z,2
2023-04-11T02:59:25.826Z,2
2023-04-11T03:01:09.526Z,2
2023-04-11T03:02:53.222Z,2
2023-04-11T03:04:36.930Z,2
2023-04-11T03:06:20.631Z,2
2023-04-11T03:08:04.334Z,1
2023-04-11T03:09:48.040Z,2
2023-04-11T03:11:31.732Z,2
2023-04-11T03:13:15.432Z,2
2023-04-11T03:14:59.148Z,2
2023-04-11T03:16:42.865Z,2
2023-04-11T03:18:26.545Z,3
2023-04-11T03:20:10.265Z,2
2023-04-11T03:21:53.952Z,2
2023-04-11T03:23:37.667Z,1
2023-04-11T03:25:21.359Z,2
2023-04-11T03:27:05.078Z,2
2023-04-11T03:28:48.770Z,2
2023-04-11T03:30:32.471Z,2
2023-04-11T03:32:16.186Z,1
2023-04-11T03:33:59.893Z,2
2023-04-11T03:35:43.581Z,2
2023-04-11T03:37:27.278Z,2
2023-04-11T03:39:10.975Z,2
2023-04-11T03:40:54.683Z,2
2023-04-11T03:42:38.393Z,2
2023-04-11T03:44:22.093Z,2
2023-04-11T03:46:05.808Z,2
2023-04-11T03:47:49.505Z,2
2023-04-11T03:49:33.195Z,2
2023-04-11T03:51:16.897Z,2
2023-04-11T03:53:00.604Z,2
2023-04-11T03:54:44.309Z,3
2023-04-11T03:56:28.019Z,3
2023-04-11T03:58:11.697Z,2
2023-04-11T03:59:55.409Z,3
2023-04-11T04:01:39.125Z,3
2023-04-11T04:03:22.815Z,2
2023-04-11T04:05:06.515Z,3
2023-04-11T04:06:50.223Z,2
2023-04-11T04:08:33.925Z,2
2023-04-11T04:10:17.627Z,2
2023-04-11T04:12:01.322Z,2
2023-04-11T04:13:45.027Z,2
2023-04-11T04:15:28.741Z,2
2023-04-11T04:17:12.455Z,2
2023-04-11T04:18:56.136Z,2
2023-04-11T04:20:39.843Z,2
2023-04-11T04:22:23.540Z,2
2023-04-11T04:24:07.238Z,2
2023-04-11T04:25:50.953Z,3
2023-04-11T04:27:34.654Z,3
2023-04-11T04:29:18.361Z,3
2023-04-11T04:31:02.049Z,4
2023-04-11T04:32:45.759Z,4
2023-04-11T04:34:29.459Z,4
2023-04-11T04:36:13.163Z,5
2023-04-11T04:37:56.868Z,5
2023-04-11T04:39:40.570Z,6
2023-04-11T04:41:24.259Z,6
2023-04-11T04:43:07.977Z,6
2023-04-11T04:44:51.670Z,6
2023-04-11T04:46:35.387Z,7
2023-04-11T04:48:19.096Z,8
2023-04-11T04:50:02.782Z,8
2023-04-11T04:51:46.484Z,9
2023-04-11T04:53:30.192Z,10
2023-04-11T04:55:13.966Z,11
2023-04-11T04:56:57.596Z,12
2023-04-11T04:58:41.286Z,15
2023-04-11T05:00:25.005Z,18
2023-04-11T05:02:08.712Z,21
2023-04-11T05:03:52.408Z,23
2023-04-11T05:05:36.109Z,24
2023-04-11T05:07:19.814Z,23
2023-04-11T05:09:03.517Z,23
2023-04-11T05:10:47.215Z,27
2023-04-11T05:12:30.927Z,35
2023-04-11T05:14:14.653Z,44
2023-04-11T05:15:58.341Z,47
2023-04-11T05:17:42.018Z,41
2023-04-11T05:19:25.725Z,39
2023-04-11T05:21:09.432Z,42
2023-04-11T05:22:53.128Z,42
2023-04-11T05:24:36.838Z,45
2023-04-11T05:26:20.551Z,45
2023-04-11T05:28:04.243Z,47
2023-04-11T05:29:47.951Z,46
2023-04-11T05:31:31.650Z,53
2023-04-11T05:33:15.352Z,65
2023-04-11T05:34:59.055Z,74
2023-04-11T05:36:42.752Z,82
2023-04-11T05:38:26.467Z,92
2023-04-11T05:40:10.176Z,95
2023-04-11T05:41:54.019Z,90
2023-04-11T05:43:37.573Z,85
2023-04-11T05:45:21.283Z,88
2023-04-11T05:47:04.980Z,99
2023-04-11T05:48:48.691Z,128
2023-04-11T05:50:32.382Z,134
2023-04-11T05:52:16.092Z,131
2023-04-11T05:53:59.798Z,136
2023-04-11T05:55:43.488Z,150
2023-04-11T05:57:27.217Z,150
2023-04-11T05:59:10.895Z,156
2023-04-11T06:00:54.595Z,168
2023-04-11T06:02:38.313Z,156
2023-04-11T06:04:21.985Z,155
2023-04-11T06:06:05.699Z,181
2023-04-11T06:07:49.400Z,170
2023-04-11T06:09:33.192Z,149
2023-04-11T06:11:16.813Z,177
2023-04-11T06:13:00.512Z,208
2023-04-11T06:14:44.208Z,240
2023-04-11T06:16:27.914Z,267
2023-04-11T06:18:11.614Z,256
2023-04-11T06:19:55.313Z,257
2023-04-11T06:21:39.026Z,281
2023-04-11T06:23:22.724Z,316
2023-04-11T06:25:06.430Z,330
2023-04-11T06:26:50.138Z,315
2023-04-11T06:28:33.844Z,325
2023-04-11T06:30:17.535Z,334
2023-04-11T06:32:01.227Z,353
2023-04-11T06:33:44.933Z,348
2023-04-11T06:35:28.648Z,330
2023-04-11T06:37:12.352Z,343
2023-04-11T06:38:56.050Z,338
2023-04-11T06:40:39.745Z,354
2023-04-11T06:42:23.451Z,425
2023-04-11T06:44:07.152Z,471
2023-04-11T06:45:50.850Z,500
2023-04-11T06:47:34.560Z,505
2023-04-11T06:49:18.263Z,528
2023-04-11T06:51:01.961Z,559
2023-04-11T06:52:45.677Z,548
2023-04-11T06:54:29.375Z,521
2023-04-11T06:56:13.076Z,529
2023-04-11T06:57:56.786Z,557
2023-04-11T06:59:40.491Z,527
2023-04-11T07:01:24.180Z,539
2023-04-11T07:03:07.895Z,581
2023-04-11T07:04:51.595Z,660
2023-04-11T07:06:35.307Z,735
2023-04-11T07:08:18.976Z,739
2023-04-11T07:10:02.692Z,738
2023-04-11T07:11:46.399Z,739
2023-04-11T07:13:30.092Z,738
2023-04-11T07:15:13.798Z,738
2023-04-11T07:16:57.502Z,729
2023-04-11T07:18:41.208Z,702
2023-04-11T07:20:24.915Z,680
2023-04-11T07:22:08.615Z,599
2023-04-11T07:23:52.305Z,586
2023-04-11T07:25:36.017Z,557
2023-04-11T07:27:19.722Z,592
2023-04-11T07:29:03.422Z,604
2023-04-11T07:30:47.125Z,549
2023-04-11T07:32:30.822Z,585
2023-04-11T07:34:14.530Z,599
2023-04-11T07:35:58.228Z,720
2023-04-11T07:37:41.945Z,738
2023-04-11T07:39:25.636Z,737
2023-04-11T07:41:09.332Z,738
2023-04-11T07:42:53.045Z,738
2023-04-11T07:44:36.736Z,739
2023-04-11T07:46:20.438Z,738
2023-04-11T07:48:04.152Z,738
2023-04-11T07:49:47.838Z,738
2023-04-11T07:51:31.548Z,739
2023-04-11T07:53:15.250Z,738
2023-04-11T07:54:58.946Z,738
2023-04-11T07:56:42.654Z,738
2023-04-11T07:58:26.351Z,738
2023-04-11T08:00:10.056Z,738
2023-04-11T08:01:53.771Z,738
2023-04-11T08:03:37.454Z,738
2023-04-11T08:05:21.170Z,739
2023-04-11T08:07:04.876Z,738
2023-04-11T08:08:48.568Z,738
2023-04-11T08:10:32.268Z,738
2023-04-11T08:12:15.978Z,739
2023-04-11T08:13:59.673Z,739
2023-04-11T08:15:43.445Z,738
2023-04-11T08:17:27.087Z,738
2023-04-11T08:19:10.783Z,738
2023-04-11T08:20:54.495Z,737
2023-04-11T08:22:38.198Z,739
2023-04-11T08:24:21.902Z,738
2023-04-11T08:26:05.598Z,738
2023-04-11T08:27:49.303Z,739
2023-04-11T08:29:33.017Z,738
2023-04-11T08:31:16.700Z,738
2023-04-11T08:33:00.404Z,739
2023-04-11T08:34:44.118Z,738
2023-04-11T08:36:27.825Z,738
2023-04-11T08:38:11.514Z,737
2023-04-11T08:41:38.929Z,740
2023-04-11T08:43:22.634Z,738
2023-04-11T08:45:06.320Z,738
2023-04-11T08:46:50.025Z,738
2023-04-11T08:48:33.727Z,738
2023-04-11T08:50:17.430Z,739
2023-04-11T08:52:01.130Z,737
2023-04-11T08:53:44.939Z,738
2023-04-11T08:55:28.541Z,738
2023-04-11T08:57:12.243Z,738
2023-04-11T09:00:39.650Z,739
2023-04-11T09:02:23.358Z,740
2023-04-11T09:04:07.049Z,739
2023-04-11T09:05:50.752Z,738
2023-04-11T09:07:34.457Z,735
2023-04-11T09:09:25.348Z,738
2023-04-11T09:11:01.872Z,738
2023-04-11T09:12:45.581Z,738
2023-04-11T09:14:29.275Z,738
2023-04-11T09:16:12.969Z,738
2023-04-11T09:17:56.663Z,738
2023-04-11T09:19:40.380Z,738
2023-04-11T09:21:24.082Z,728
2023-04-11T09:23:07.777Z,739
2023-04-11T09:24:51.489Z,738
2023-04-11T09:26:35.182Z,738
2023-04-11T09:28:18.896Z,738
2023-04-11T09:30:02.578Z,738
2023-04-11T09:31:46.273Z,739
2023-04-11T09:33:29.997Z,738
2023-04-11T09:35:13.701Z,737
2023-04-11T09:36:57.419Z,739
2023-04-11T09:40:25.026Z,738
2023-04-11T09:42:08.502Z,738
2023-04-11T09:43:52.206Z,739
2023-04-11T09:45:35.914Z,739
2023-04-11T09:47:19.616Z,738
2023-04-11T09:49:03.325Z,738
2023-04-11T09:50:47.025Z,739
2023-04-11T09:52:30.713Z,738
2023-04-11T09:54:14.421Z,738
2023-04-11T09:55:58.132Z,737
2023-04-11T09:57:41.828Z,738
2023-04-11T09:59:25.521Z,739
2023-04-11T10:01:09.231Z,738
2023-04-11T10:02:52.956Z,728
2023-04-11T10:04:36.637Z,738
2023-04-11T10:06:20.343Z,739
2023-04-11T10:08:04.036Z,739
2023-04-11T10:09:47.787Z,738
2023-04-11T10:11:31.448Z,737
2023-04-11T10:13:15.146Z,739
2023-04-11T10:14:58.851Z,739
2023-04-11T10:16:42.549Z,737
2023-04-11T10:18:26.244Z,738
2023-04-11T10:20:09.953Z,739
2023-04-11T10:21:53.654Z,739
2023-04-11T10:23:37.362Z,738
2023-04-11T10:25:21.062Z,737
2023-04-11T10:27:04.764Z,739
2023-04-11T10:28:48.471Z,739
2023-04-11T10:30:32.176Z,737
2023-04-11T10:32:15.864Z,738
2023-04-11T10:33:59.612Z,739
2023-04-11T10:35:43.279Z,739
2023-04-11T10:37:26.989Z,738
2023-04-11T10:39:10.680Z,738
2023-04-11T10:40:54.382Z,739
2023-04-11T10:42:38.091Z,739
2023-04-11T10:44:21.967Z,738
2023-04-11T10:46:05.477Z,738
2023-04-11T10:47:49.365Z,739
2023-04-11T10:49:33.106Z,737
2023-04-11T10:51:16.764Z,739
2023-04-11T10:53:00.517Z,738
2023-04-11T10:54:44.174Z,739
2023-04-11T10:56:27.881Z,739
2023-04-11T10:58:11.567Z,738
2023-04-11T10:59:55.337Z,738
2023-04-11T11:01:38.986Z,738
2023-04-11T11:03:22.632Z,730
2023-04-11T11:10:17.374Z,739
2023-04-11T11:12:01.114Z,739
2023-04-11T11:13:44.859Z,738
2023-04-11T11:15:28.604Z,739
2023-04-11T11:17:12.369Z,737
2023-04-11T11:18:56.040Z,738
2023-04-11T11:20:39.539Z,738
2023-04-11T11:22:23.239Z,739
2023-04-11T11:24:07.111Z,739
2023-04-11T11:25:50.849Z,740
2023-04-11T11:27:34.515Z,738
2023-04-11T11:29:18.225Z,738
2023-04-11T11:31:01.897Z,737
2023-04-11T11:32:45.682Z,739
2023-04-11T11:36:12.974Z,739
2023-04-11T11:37:56.760Z,739
2023-04-11T11:39:40.413Z,738
2023-04-11T11:41:24.150Z,738
2023-04-11T11:43:07.694Z,739
2023-04-11T11:44:51.592Z,739
2023-04-11T11:46:35.244Z,738
2023-04-11T11:48:18.974Z,738
2023-04-11T11:50:02.514Z,738
2023-04-11T11:51:46.357Z,740
2023-04-11T11:53:30.091Z,738
2023-04-11T11:55:13.743Z,739
2023-04-11T11:56:57.486Z,738
2023-04-11T11:58:41.186Z,739
2023-04-11T12:00:24.863Z,739
2023-04-11T12:02:08.564Z,738
2023-04-11T12:03:52.105Z,730
2023-04-11T12:05:35.984Z,739
2023-04-11T12:07:19.720Z,739
2023-04-11T12:09:03.352Z,738
2023-04-11T12:10:47.100Z,739
2023-04-11T12:12:30.814Z,739
2023-04-11T12:14:14.313Z,739
2023-04-11T12:15:58.180Z,739
2023-04-11T12:17:41.955Z,730
2023-04-11T12:19:25.582Z,739
2023-04-11T12:21:09.298Z,740
2023-04-11T12:22:52.939Z,738
2023-04-11T12:24:36.725Z,738
2023-04-11T12:26:20.436Z,739
2023-04-11T12:28:04.055Z,739
2023-04-11T12:29:47.824Z,738
2023-04-11T12:31:31.337Z,736
2023-04-11T12:33:15.225Z,739
2023-04-11T12:34:58.968Z,738
2023-04-11T12:36:42.599Z,738
2023-04-11T12:38:26.295Z,738
2023-04-11T12:40:10.078Z,738
2023-04-11T12:41:53.554Z,739
2023-04-11T12:48:48.387Z,739
2023-04-11T12:50:32.277Z,738
2023-04-11T12:52:15.942Z,738
2023-04-11T12:53:59.664Z,740
2023-04-11T12:55:43.199Z,740
2023-04-11T12:57:27.006Z,739
2023-04-11T12:59:10.783Z,737
2023-04-11T13:00:54.487Z,739
2023-04-11T13:02:38.008Z,739
2023-04-11T13:04:21.976Z,738
2023-04-11T13:06:05.486Z,738
2023-04-11T13:07:49.297Z,739
2023-04-11T13:09:33.018Z,739
2023-04-11T13:11:16.684Z,738
2023-04-11T13:13:00.416Z,738
2023-04-11T13:14:44.108Z,739
2023-04-11T13:16:27.800Z,739
2023-04-11T13:18:11.546Z,739
2023-04-11T13:19:55.298Z,738
2023-04-11T13:21:38.838Z,739
2023-04-11T13:23:22.634Z,739
2023-04-11T13:25:06.140Z,738
2023-04-11T13:26:50.020Z,735
2023-04-11T13:28:33.631Z,738
2023-04-11T13:30:17.420Z,739
2023-04-11T13:32:01.489Z,738
2023-04-11T13:33:44.840Z,738
2023-04-11T13:35:28.361Z,739
2023-04-11T13:37:12.234Z,738
2023-04-11T13:38:55.756Z,739
2023-04-11T13:40:39.640Z,729
2023-04-11T13:42:23.342Z,739
2023-04-11T13:44:06.936Z,740
2023-04-11T13:45:50.725Z,738
2023-04-11T13:47:34.389Z,738
2023-04-11T13:49:18.086Z,739
2023-04-11T13:51:01.780Z,740
2023-04-11T13:52:45.532Z,739
2023-04-11T13:54:29.327Z,737
2023-04-11T13:56:12.987Z,738
2023-04-11T13:57:56.642Z,740
2023-04-11T13:59:40.359Z,738
2023-04-11T14:01:24.077Z,738
2023-04-11T14:03:07.893Z,739
2023-04-11T14:04:51.480Z,739
2023-04-11T14:06:35.174Z,739
2023-04-11T14:10:02.434Z,739
2023-04-11T14:11:46.269Z,739
2023-04-11T14:13:29.978Z,740
2023-04-11T14:15:13.711Z,738
2023-04-11T14:16:57.424Z,739
2023-04-11T14:18:41.059Z,740
2023-04-11T14:20:24.785Z,740
2023-04-11T14:22:08.476Z,738
2023-04-11T14:23:52.010Z,739
2023-04-11T14:25:35.903Z,740
2023-04-11T14:27:19.429Z,730
2023-04-11T14:29:03.295Z,739
2023-04-11T14:30:46.994Z,739
2023-04-11T14:32:30.682Z,739
2023-04-11T14:34:14.378Z,739
2023-04-11T14:35:58.153Z,738
2023-04-11T14:37:41.744Z,739
2023-04-11T14:39:25.519Z,739
2023-04-11T14:41:09.048Z,738
2023-04-11T14:42:52.749Z,738
2023-04-11T14:44:36.495Z,739
2023-04-11T14:46:20.147Z,740
2023-04-11T14:48:03.863Z,740
2023-04-11T14:49:47.693Z,739
2023-04-11T14:51:31.429Z,739
2023-04-11T14:53:15.138Z,739
2023-04-11T14:54:58.820Z,739
2023-04-11T14:56:42.529Z,739
2023-04-11T14:58:26.194Z,739
2023-04-11T15:00:09.910Z,740
2023-04-11T15:01:53.472Z,739
2023-04-11T15:03:37.338Z,739
2023-04-11T15:07:04.806Z,739
2023-04-11T15:08:48.458Z,738
2023-04-11T15:10:32.168Z,738
2023-04-11T15:12:15.863Z,740
2023-04-11T15:13:59.492Z,739
2023-04-11T15:15:43.095Z,739
2023-04-11T15:17:26.802Z,739
2023-04-11T15:19:10.699Z,739
2023-04-11T15:20:54.205Z,739
2023-04-11T15:22:38.010Z,739
2023-04-11T15:24:21.733Z,739
2023-04-11T15:26:05.429Z,739
2023-04-11T15:27:49.142Z,738
2023-04-11T15:29:32.894Z,739
2023-04-11T15:31:16.647Z,739
2023-04-11T15:33:00.281Z,739
2023-04-11T15:34:43.979Z,739
2023-04-11T15:36:27.701Z,739
2023-04-11T15:38:11.425Z,738
2023-04-11T15:39:55.101Z,739
2023-04-11T15:41:38.797Z,731
2023-04-11T15:43:22.533Z,739
2023-04-11T15:45:06.250Z,738
2023-04-11T15:46:49.865Z,740
2023-04-11T15:48:33.619Z,740
2023-04-11T15:50:17.315Z,739
2023-04-11T15:52:01.038Z,738
2023-04-11T15:53:44.548Z,739
2023-04-11T15:55:28.412Z,739
2023-04-11T15:57:12.132Z,740
2023-04-11T15:58:55.817Z,740
2023-04-11T16:00:39.519Z,739
2023-04-11T16:02:23.185Z,739
2023-04-11T16:04:06.819Z,738
2023-04-11T16:05:50.585Z,738
2023-04-11T16:07:34.364Z,739
2023-04-11T16:09:18.082Z,739
2023-04-11T16:11:01.707Z,740
2023-04-11T16:12:45.486Z,739
2023-04-11T16:14:29.127Z,738
2023-04-11T16:16:12.795Z,739
2023-04-11T16:17:56.556Z,739
2023-04-11T16:19:40.246Z,739
2023-04-11T16:21:23.943Z,739
2023-04-11T16:23:07.650Z,739
2023-04-11T16:24:51.360Z,739
2023-04-11T16:26:35.065Z,739
2023-04-11T16:28:18.788Z,730
2023-04-11T16:30:02.306Z,739
2023-04-11T16:31:46.093Z,738
2023-04-11T16:33:29.889Z,739
2023-04-11T16:35:13.401Z,739
2023-04-11T16:36:57.311Z,739
2023-04-11T16:38:40.917Z,738
2023-04-11T16:40:24.736Z,738
2023-04-11T16:42:08.422Z,738
2023-04-11T16:43:51.921Z,740
2023-04-11T16:45:35.747Z,739
2023-04-11T16:47:19.518Z,739
2023-04-11T16:49:03.198Z,738
2023-04-11T16:50:47.074Z,739
2023-04-11T16:52:30.654Z,740
2023-04-11T16:54:14.208Z,738
2023-04-11T16:55:58.019Z,738
2023-04-11T16:57:41.620Z,738
2023-04-11T16:59:25.395Z,739
2023-04-11T17:01:09.108Z,737
2023-04-11T17:02:52.870Z,738
2023-04-11T17:04:36.518Z,740
2023-04-11T17:06:20.067Z,739
2023-04-11T17:08:03.923Z,738
2023-04-11T17:09:47.628Z,738
2023-04-11T17:11:31.230Z,709
2023-04-11T17:13:15.102Z,672
2023-04-11T17:14:58.707Z,650
2023-04-11T17:16:42.284Z,638
2023-04-11T17:18:26.126Z,605
2023-04-11T17:20:09.865Z,554
2023-04-11T17:21:53.541Z,519
2023-04-11T17:23:37.281Z,493
2023-04-11T17:25:20.772Z,461
2023-04-11T17:27:04.506Z,431
2023-04-11T17:28:48.374Z,401
2023-04-11T17:30:32.089Z,365
2023-04-11T17:32:15.745Z,331
2023-04-11T17:33:59.431Z,299
2023-04-11T17:35:43.188Z,265
2023-04-11T17:37:26.776Z,234
2023-04-11T17:39:10.600Z,210
2023-04-11T17:40:54.258Z,188
2023-04-11T17:42:37.992Z,169
2023-04-11T17:44:21.746Z,150
2023-04-11T17:46:05.366Z,135
2023-04-11T17:47:49.117Z,118
2023-04-11T17:49:32.815Z,106
2023-04-11T17:51:16.474Z,94
2023-04-11T17:53:00.147Z,84
2023-04-11T17:54:43.912Z,72
2023-04-11T17:56:27.589Z,63
2023-04-11T17:58:11.298Z,54
2023-04-11T17:59:55.020Z,46
2023-04-11T18:01:38.532Z,38
2023-04-11T18:03:22.390Z,31
2023-04-11T18:05:06.163Z,26
2023-04-11T18:06:49.866Z,23
2023-04-11T18:08:33.525Z,21
2023-04-11T18:10:17.097Z,18
2023-04-11T18:12:00.988Z,16
2023-04-11T18:13:44.461Z,14
2023-04-11T18:15:28.297Z,12
2023-04-11T18:17:12.069Z,11
2023-04-11T18:18:55.693Z,9
2023-04-11T18:20:39.412Z,7
2023-04-11T18:22:23.174Z,6
2023-04-11T18:24:06.821Z,5
2023-04-11T18:25:50.442Z,4
2023-04-11T18:27:34.254Z,3
2023-04-11T18:29:17.922Z,3
2023-04-11T18:31:01.706Z,3
2023-04-11T18:32:45.362Z,3
2023-04-11T18:34:29.081Z,3
2023-04-11T18:36:12.776Z,2
2023-04-11T18:37:56.494Z,2
2023-04-11T18:39:40.179Z,3
2023-04-11T18:41:23.822Z,3
2023-04-11T18:43:07.414Z,2
2023-04-11T18:44:51.244Z,2
2023-04-11T18:46:34.985Z,2
2023-04-11T18:48:18.501Z,3
2023-04-11T18:50:02.437Z,2
2023-04-11T18:51:46.048Z,2
2023-04-11T18:53:29.817Z,3
2023-04-11T18:55:13.485Z,2
2023-04-11T18:56:57.226Z,2
2023-04-11T18:58:41.204Z,3
2023-04-11T19:00:24.430Z,3
2023-04-11T19:02:08.336Z,3
2023-04-11T19:03:52.016Z,3
2023-04-11T19:05:35.695Z,3
2023-04-11T19:07:19.421Z,2
2023-04-11T19:09:03.063Z,2
2023-04-11T19:10:46.808Z,2
2023-04-11T19:12:30.415Z,2
2023-04-11T19:14:14.168Z,3
2023-04-11T19:15:57.763Z,3
2023-04-11T19:17:41.454Z,2
2023-04-11T19:19:25.282Z,3
2023-04-11T19:21:08.876Z,2
2023-04-11T19:22:52.732Z,2
2023-04-11T19:24:36.322Z,2
2023-04-11T19:26:19.971Z,2
2023-04-11T19:28:03.670Z,1
2023-04-11T19:29:47.384Z,2
2023-04-11T19:31:31.074Z,2
2023-04-11T19:33:14.933Z,2
2023-04-11T19:34:58.661Z,2
2023-04-11T19:36:42.316Z,2
2023-04-11T19:38:25.940Z,2
2023-04-11T19:40:09.689Z,1
2023-04-11T19:41:53.459Z,3
2023-04-11T19:43:36.990Z,3
2023-04-11T19:45:20.852Z,2
2023-04-11T19:47:04.401Z,2
2023-04-11T19:48:48.144Z,2
2023-04-11T19:50:31.948Z,2
2023-04-11T19:52:15.552Z,2
2023-04-11T19:53:59.313Z,3
2023-04-11T19:55:43.102Z,2
2023-04-11T19:57:26.618Z,3
2023-04-11T19:59:10.430Z,2
2023-04-11T20:00:54.202Z,2
2023-04-11T20:02:37.852Z,2
2023-04-11T20:04:21.518Z,2
2023-04-11T20:06:05.239Z,3
2023-04-11T20:07:49.005Z,2
2023-04-11T20:09:32.757Z,3
2023-04-11T20:11:16.405Z,3
2023-04-11T20:12:59.998Z,2
2023-04-11T20:14:43.852Z,2
2023-04-11T20:16:27.385Z,2
2023-04-11T20:18:11.137Z,2
2023-04-11T20:19:54.852Z,2
2023-04-11T20:21:38.581Z,2
2023-04-11T20:23:22.171Z,2
2023-04-11T20:25:05.981Z,3
2023-04-11T20:26:49.561Z,3
2023-04-11T20:28:33.376Z,3
2023-04-11T20:30:16.979Z,2
2023-04-11T20:32:00.915Z,3
2023-04-11T20:33:44.506Z,2
2023-04-11T20:35:28.304Z,3
2023-04-11T20:37:11.785Z,2
2023-04-11T20:38:55.609Z,2
2023-04-11T20:40:39.186Z,2
2023-04-11T20:42:23.013Z,2
2023-04-11T20:44:06.765Z,9
2023-04-11T20:45:50.326Z,3
2023-04-11T20:47:33.999Z,3
2023-04-11T20:49:17.860Z,2
2023-04-11T20:51:01.394Z,3
2023-04-11T20:52:45.263Z,2
2023-04-11T20:54:28.805Z,3
2023-04-11T20:56:12.656Z,3
2023-04-11T20:57:56.339Z,2
2023-04-11T20:59:40.069Z,3
2023-04-11T21:01:23.736Z,1
2023-04-11T21:03:07.446Z,3
2023-04-11T21:04:51.183Z,2
2023-04-11T21:06:34.721Z,2
2023-04-11T21:08:18.505Z,3
2023-04-11T21:10:02.201Z,2
2023-04-11T21:11:45.873Z,2
2023-04-11T21:13:29.707Z,2
2023-04-11T21:15:13.295Z,3
2023-04-11T21:16:57.136Z,2
2023-04-11T21:18:40.655Z,2
2023-04-11T21:20:24.335Z,3
2023-04-11T21:22:08.061Z,3
2023-04-11T21:23:51.867Z,3
2023-04-11T21:25:35.607Z,3
2023-04-11T21:27:19.302Z,2
2023-04-11T21:29:02.993Z,2
2023-04-11T21:30:46.700Z,2
2023-04-11T21:32:30.263Z,2
2023-04-11T21:34:13.955Z,3
2023-04-11T21:35:57.837Z,2
2023-04-11T21:37:41.363Z,2
2023-04-11T21:39:25.070Z,3
2023-04-11T21:41:08.948Z,2
2023-04-11T21:42:52.473Z,2
2023-04-11T21:44:36.219Z,1
2023-04-11T21:46:20.018Z,2
2023-04-11T21:48:03.688Z,2
2023-04-11T21:49:47.418Z,2
2023-04-11T21:51:30.994Z,9
2023-04-11T21:53:14.833Z,10
2023-04-11T21:54:58.557Z,10
2023-04-11T21:56:42.225Z,9
2023-04-11T21:58:25.802Z,9
2023-04-11T22:00:09.633Z,2
2023-04-11T22:01:53.249Z,2
2023-04-11T22:03:37.043Z,2
2023-04-11T22:05:20.616Z,2
2023-04-11T22:07:04.462Z,2
2023-04-11T22:08:48.055Z,2
2023-04-11T22:10:31.846Z,2
2023-04-11T22:12:15.531Z,2
2023-04-11T22:13:59.229Z,2
2023-04-11T22:15:43.143Z,2
2023-04-11T22:17:26.519Z,2
2023-04-11T22:19:10.360Z,3
2023-04-11T22:20:54.054Z,3
2023-04-11T22:22:37.637Z,2
2023-04-11T22:24:21.500Z,2
2023-04-11T22:26:05.033Z,8
2023-04-11T22:27:48.735Z,9
2023-04-11T22:29:32.454Z,10
2023-04-11T22:31:16.144Z,10
2023-04-11T22:32:59.837Z,2
2023-04-11T22:34:43.588Z,2
2023-04-11T22:36:27.247Z,3
2023-04-11T22:38:11.168Z,2
2023-04-11T22:39:54.651Z,2
2023-04-11T22:41:38.503Z,3
2023-04-11T22:43:22.186Z,2
2023-04-11T22:45:05.802Z,3
2023-04-11T22:46:49.573Z,2
2023-04-11T22:48:33.407Z,2
2023-04-11T22:50:16.899Z,2
2023-04-11T22:52:00.684Z,2
2023-04-11T22:53:44.344Z,3
2023-04-11T22:55:27.974Z,3
2023-04-11T22:57:11.751Z,3
2023-04-11T22:58:55.379Z,9
2023-04-11T23:00:39.097Z,9
2023-04-11T23:02:22.955Z,8
2023-04-11T23:04:06.571Z,2
2023-04-11T23:05:50.198Z,2
2023-04-11T23:07:33.894Z,2
2023-04-11T23:09:17.676Z,2
2023-04-11T23:11:01.299Z,2
2023-04-11T23:12:45.032Z,2
2023-04-11T23:14:28.857Z,3
2023-04-11T23:16:12.422Z,3
2023-04-11T23:17:56.289Z,3
2023-04-11T23:19:39.903Z,10
2023-04-11T23:21:23.749Z,9
2023-04-11T23:23:07.272Z,10
2023-04-11T23:24:50.929Z,3
2023-04-11T23:26:34.747Z,2
2023-04-11T23:28:18.390Z,3
2023-04-11T23:30:02.034Z,3
2023-04-11T23:31:45.882Z,3
2023-04-11T23:33:29.487Z,2
2023-04-11T23:35:13.193Z,3
2023-04-11T23:36:56.969Z,2
2023-04-11T23:38:40.677Z,2
2023-04-11T23:40:24.371Z,3
2023-04-11T23:42:08.014Z,2
2023-04-11T23:43:51.958Z,2
2023-04-11T23:45:35.339Z,2
2023-04-11T23:47:19.108Z,2
2023-04-11T23:49:02.748Z,2
2023-04-11T23:50:46.611Z,2
2023-04-11T23:52:30.288Z,2
2023-04-11T23:54:13.961Z,1
2023-04-11T23:55:57.570Z,2
2023-04-11T23:57:41.442Z,2
2023-04-11T23:59:25.213Z,2
